createdAt,value
2019-04-12T00:00:42.985Z,12.24
2019-04-12T00:03:11.754Z,12.07
2019-04-12T00:05:40.287Z,11.79
2019-04-12T00:08:08.880Z,11.66
2019-04-12T00:10:37.587Z,11.90
2019-04-12T00:13:06.054Z,11.93
2019-04-12T00:15:34.480Z,11.79
2019-04-12T00:18:03.182Z,11.46
2019-04-12T00:20:31.797Z,11.45
2019-04-12T00:23:00.401Z,11.59
2019-04-12T00:25:28.916Z,11.53
2019-04-12T00:27:57.567Z,11.44
2019-04-12T00:30:26.076Z,11.83
2019-04-12T00:32:54.738Z,11.92
2019-04-12T00:35:23.272Z,11.95
2019-04-12T00:37:55.366Z,11.52
2019-04-12T00:40:22.577Z,11.42
2019-04-12T00:42:51.182Z,11.51
2019-04-12T00:45:19.711Z,11.58
2019-04-12T00:50:36.565Z,11.41
2019-04-12T00:53:05.150Z,11.73
2019-04-12T00:55:33.777Z,11.71
2019-04-12T00:58:02.298Z,11.48
2019-04-12T01:00:33.253Z,11.33
2019-04-12T01:03:03.314Z,11.25
2019-04-12T01:05:33.316Z,11.18
2019-04-12T01:08:05.180Z,11.16
2019-04-12T01:10:35.288Z,11.28
2019-04-12T01:13:05.226Z,11.25
2019-04-12T01:15:34.744Z,11.11
2019-04-12T01:18:03.874Z,11.41
2019-04-12T01:20:36.307Z,11.65
2019-04-12T01:23:09.772Z,11.71
2019-04-12T01:25:36.667Z,11.66
2019-04-12T01:28:05.461Z,11.38
2019-04-12T01:30:34.112Z,11.62
2019-04-12T01:33:02.860Z,11.66
2019-04-12T01:35:31.550Z,11.71
2019-04-12T01:38:00.378Z,11.37
2019-04-12T01:40:28.985Z,11.31
2019-04-12T01:42:57.619Z,11.23
2019-04-12T01:45:26.142Z,11.23
2019-04-12T01:47:54.647Z,10.95
2019-04-12T01:50:23.178Z,11.00
2019-04-12T01:52:51.795Z,11.05
2019-04-12T01:55:20.322Z,10.93
2019-04-12T01:57:48.838Z,11.17
2019-04-12T02:00:17.461Z,11.54
2019-04-12T02:02:46.152Z,11.65
2019-04-12T02:05:15.630Z,11.41
2019-04-12T02:07:44.237Z,11.42
2019-04-12T02:10:13.134Z,11.64
2019-04-12T02:12:41.557Z,11.66
2019-04-12T02:15:10.283Z,11.60
2019-04-12T02:17:38.994Z,11.33
2019-04-12T02:20:08.911Z,11.05
2019-04-12T02:22:37.531Z,10.93
2019-04-12T02:25:06.440Z,10.99
2019-04-12T02:27:35.074Z,10.93
2019-04-12T02:30:04.704Z,10.88
2019-04-12T02:32:52.078Z,11.03
2019-04-12T02:35:55.110Z,11.25
2019-04-12T02:38:23.873Z,11.17
2019-04-12T02:40:53.487Z,11.11
2019-04-12T02:43:24.423Z,11.23
2019-04-12T02:45:55.160Z,10.99
2019-04-12T02:48:47.464Z,10.79
2019-04-12T02:51:47.604Z,10.76
2019-04-12T02:54:40.496Z,10.75
2019-04-12T02:57:26.125Z,10.71
2019-04-12T02:59:56.056Z,10.72
2019-04-12T03:02:26.323Z,10.95
2019-04-12T03:04:55.071Z,11.11
2019-04-12T03:07:23.800Z,10.97
2019-04-12T03:09:56.045Z,10.77
2019-04-12T03:12:26.961Z,10.70
2019-04-12T03:14:57.804Z,10.66
2019-04-12T03:17:26.318Z,10.73
2019-04-12T03:19:54.826Z,10.93
2019-04-12T03:22:23.653Z,10.75
2019-04-12T03:24:52.491Z,11.11
2019-04-12T03:27:21.416Z,11.32
2019-04-12T03:29:50.055Z,11.32
2019-04-12T03:32:18.665Z,11.08
2019-04-12T03:34:47.372Z,10.91
2019-04-12T03:37:16.286Z,10.96
2019-04-12T03:39:45.046Z,11.03
2019-04-12T03:42:13.660Z,11.33
2019-04-12T03:44:42.368Z,11.42
2019-04-12T03:47:11.053Z,11.24
2019-04-12T03:49:40.286Z,11.29
2019-04-12T03:52:09.569Z,11.46
2019-04-12T03:54:38.420Z,11.43
2019-04-12T03:57:07.407Z,11.31
2019-04-12T03:59:36.514Z,11.40
2019-04-12T04:02:09.869Z,11.39
2019-04-12T04:04:38.476Z,11.40
2019-04-12T04:07:07.391Z,11.19
2019-04-12T04:09:35.966Z,11.21
2019-04-12T04:12:05.042Z,10.97
2019-04-12T04:14:34.264Z,11.14
2019-04-12T04:17:21.185Z,11.31
2019-04-12T04:20:20.011Z,11.36
2019-04-12T04:22:49.000Z,11.40
2019-04-12T04:25:35.873Z,11.19
2019-04-12T04:28:26.690Z,11.05
2019-04-12T04:31:00.583Z,11.09
2019-04-12T04:33:29.493Z,11.04
2019-04-12T04:35:58.422Z,10.93
2019-04-12T04:38:27.131Z,10.85
2019-04-12T04:41:00.981Z,10.86
2019-04-12T04:43:29.952Z,10.97
2019-04-12T04:45:58.885Z,11.17
2019-04-12T04:48:27.918Z,11.26
2019-04-12T04:50:57.067Z,11.13
2019-04-12T04:53:26.262Z,11.11
2019-04-12T04:55:55.820Z,11.20
2019-04-12T04:58:24.478Z,11.27
2019-04-12T05:00:53.841Z,11.01
2019-04-12T05:03:23.643Z,11.09
2019-04-12T05:05:52.782Z,11.19
2019-04-12T05:08:21.615Z,11.01
2019-04-12T05:10:50.297Z,11.04
2019-04-12T05:13:19.750Z,11.00
2019-04-12T05:15:48.967Z,10.97
2019-04-12T05:18:17.878Z,10.81
2019-04-12T05:20:46.795Z,10.94
2019-04-12T05:23:15.703Z,11.14
2019-04-12T05:25:44.414Z,11.16
2019-04-12T05:28:13.338Z,11.42
2019-04-12T05:30:42.452Z,11.48
2019-04-12T05:33:11.568Z,11.51
2019-04-12T05:35:40.369Z,11.61
2019-04-12T05:38:09.158Z,11.86
2019-04-12T05:40:37.836Z,11.98
2019-04-12T05:43:06.544Z,11.85
2019-04-12T05:45:46.884Z,11.68
2019-04-12T05:48:33.635Z,11.75
2019-04-12T05:51:02.192Z,11.52
2019-04-12T05:53:31.909Z,11.74
2019-04-12T05:56:00.684Z,11.84
2019-04-12T05:58:56.057Z,11.63
2019-04-12T06:01:36.584Z,11.77
2019-04-12T06:04:05.487Z,12.00
2019-04-12T06:06:34.109Z,11.91
2019-04-12T06:09:03.958Z,11.91
2019-04-12T06:11:32.783Z,11.94
2019-04-12T06:14:01.833Z,12.16
2019-04-12T06:16:31.515Z,12.11
2019-04-12T06:19:02.575Z,12.05
2019-04-12T06:21:40.665Z,12.24
2019-04-12T06:24:09.319Z,12.46
2019-04-12T06:27:09.313Z,12.64
2019-04-12T06:29:30.827Z,12.78
2019-04-12T06:31:59.664Z,12.79
2019-04-12T06:34:28.110Z,12.96
2019-04-12T06:36:56.769Z,13.05
2019-04-12T06:39:25.171Z,13.19
2019-04-12T06:41:53.903Z,13.21
2019-04-12T06:44:22.641Z,13.13
2019-04-12T06:46:51.288Z,13.06
2019-04-12T06:49:19.993Z,13.04
2019-04-12T06:51:48.753Z,13.12
2019-04-12T06:54:17.278Z,13.08
2019-04-12T06:56:57.071Z,13.45
2019-04-12T06:59:25.615Z,13.53
2019-04-12T07:02:13.681Z,13.52
2019-04-12T07:04:45.606Z,13.42
2019-04-12T07:07:14.151Z,13.47
2019-04-12T07:09:42.710Z,13.67
2019-04-12T07:12:11.270Z,13.66
2019-04-12T07:14:39.777Z,13.69
2019-04-12T07:17:08.423Z,13.72
2019-04-12T07:19:36.969Z,13.72
2019-04-12T07:22:05.659Z,13.77
2019-04-12T07:24:34.336Z,13.81
2019-04-12T07:27:03.020Z,13.98
2019-04-12T07:29:31.776Z,13.99
2019-04-12T07:32:00.458Z,13.83
2019-04-12T07:34:28.922Z,14.08
2019-04-12T07:36:57.587Z,14.19
2019-04-12T07:39:26.267Z,14.32
2019-04-12T07:41:54.919Z,14.31
2019-04-12T07:44:23.564Z,14.34
2019-04-12T07:46:52.195Z,14.34
2019-04-12T07:49:20.709Z,14.37
2019-04-12T07:52:00.314Z,14.42
2019-04-12T07:54:50.811Z,14.38
2019-04-12T07:57:47.132Z,14.30
2019-04-12T08:00:34.791Z,14.27
2019-04-12T08:03:16.031Z,14.39
2019-04-12T08:05:46.958Z,14.38
2019-04-12T08:08:15.510Z,14.43
2019-04-12T08:10:44.026Z,14.48
2019-04-12T08:13:12.525Z,14.58
2019-04-12T08:15:41.134Z,14.77
2019-04-12T08:18:09.898Z,15.10
2019-04-12T08:20:38.498Z,15.24
2019-04-12T08:23:07.145Z,15.29
2019-04-12T08:25:35.668Z,15.41
2019-04-12T08:28:04.281Z,15.46
2019-04-12T08:30:32.899Z,15.44
2019-04-12T08:33:01.526Z,15.52
2019-04-12T08:35:30.058Z,15.44
2019-04-12T08:38:04.730Z,15.45
2019-04-12T08:40:29.055Z,15.40
2019-04-12T08:42:57.657Z,15.43
2019-04-12T08:45:26.112Z,15.46
2019-04-12T08:47:54.797Z,15.40
2019-04-12T08:50:23.263Z,15.32
2019-04-12T08:52:51.867Z,15.25
2019-04-12T08:55:20.429Z,15.24
2019-04-12T08:57:49.103Z,15.20
2019-04-12T09:00:17.770Z,15.28
2019-04-12T09:02:58.190Z,15.19
2019-04-12T09:05:16.993Z,15.18
2019-04-12T09:07:45.623Z,15.22
2019-04-12T09:10:14.394Z,15.18
2019-04-12T09:12:42.987Z,15.11
2019-04-12T09:15:11.808Z,15.10
2019-04-12T09:17:40.510Z,15.08
2019-04-12T09:20:25.723Z,15.10
2019-04-12T09:23:16.631Z,15.05
2019-04-12T09:25:52.268Z,15.08
2019-04-12T09:28:25.106Z,15.06
2019-04-12T09:30:51.214Z,14.98
2019-04-12T09:33:19.911Z,14.83
2019-04-12T09:35:48.467Z,14.64
2019-04-12T09:38:17.122Z,14.48
2019-04-12T09:40:45.601Z,14.27
2019-04-12T09:43:15.439Z,14.22
2019-04-12T09:45:46.837Z,14.42
2019-04-12T09:48:15.460Z,14.51
2019-04-12T09:50:43.987Z,14.57
2019-04-12T09:53:12.597Z,14.60
2019-04-12T09:55:41.266Z,14.50
2019-04-12T09:58:10.015Z,14.38
2019-04-12T10:00:38.461Z,14.20
2019-04-12T10:03:07.073Z,14.04
2019-04-12T10:05:35.619Z,14.04
2019-04-12T10:08:04.329Z,14.04
2019-04-12T10:10:32.981Z,14.14
2019-04-12T10:13:01.603Z,14.20
2019-04-12T10:15:30.231Z,14.27
2019-04-12T10:18:01.260Z,14.15
2019-04-12T10:20:29.341Z,14.03
2019-04-12T10:22:57.903Z,14.02
2019-04-12T10:25:26.549Z,14.20
2019-04-12T10:27:55.057Z,14.13
2019-04-12T10:30:24.283Z,14.08
2019-04-12T10:32:52.813Z,13.94
2019-04-12T10:35:21.943Z,13.74
2019-04-12T10:37:50.611Z,13.60
2019-04-12T10:40:19.145Z,13.66
2019-04-12T10:42:47.875Z,13.62
2019-04-12T10:45:36.167Z,13.62
2019-04-12T10:48:11.211Z,13.75
2019-04-12T10:51:11.260Z,13.85
2019-04-12T10:53:49.432Z,13.86
2019-04-12T10:56:17.942Z,13.65
2019-04-12T10:58:47.270Z,13.75
2019-04-12T11:01:16.069Z,13.74
2019-04-12T11:03:44.816Z,13.62
2019-04-12T11:06:13.409Z,13.78
2019-04-12T11:08:41.926Z,13.83
2019-04-12T11:11:10.574Z,13.92
2019-04-12T11:13:39.201Z,13.81
2019-04-12T11:16:07.887Z,13.82
2019-04-12T11:18:36.388Z,14.01
2019-04-12T11:21:04.928Z,14.00
2019-04-12T11:23:33.730Z,14.17
2019-04-12T11:26:02.837Z,14.14
2019-04-12T11:28:31.571Z,14.20
2019-04-12T11:31:00.051Z,13.94
2019-04-12T11:33:28.497Z,13.95
2019-04-12T11:35:57.049Z,13.81
2019-04-12T11:38:25.678Z,13.91
2019-04-12T11:40:54.290Z,14.02
2019-04-12T11:43:22.858Z,14.04
2019-04-12T11:45:51.681Z,14.05
2019-04-12T11:48:20.297Z,13.96
2019-04-12T11:50:48.959Z,13.87
2019-04-12T11:53:17.654Z,13.81
2019-04-12T11:55:46.298Z,13.92
2019-04-12T11:58:14.838Z,13.87
2019-04-12T12:00:50.055Z,13.94
2019-04-12T12:03:32.631Z,13.85
2019-04-12T12:06:14.455Z,13.66
2019-04-12T12:09:14.650Z,13.62
2019-04-12T12:11:47.222Z,13.67
2019-04-12T12:14:44.288Z,13.53
2019-04-12T12:17:22.259Z,13.51
2019-04-12T12:19:50.834Z,13.51
2019-04-12T12:22:19.346Z,13.52
2019-04-12T12:24:47.857Z,13.57
2019-04-12T12:27:16.489Z,13.70
2019-04-12T12:29:45.130Z,13.58
2019-04-12T12:32:13.759Z,13.62
2019-04-12T12:34:42.743Z,13.66
2019-04-12T12:37:11.751Z,13.65
2019-04-12T12:39:40.472Z,13.56
2019-04-12T12:42:09.143Z,13.64
2019-04-12T12:44:37.705Z,13.74
2019-04-12T12:47:06.366Z,13.82
2019-04-12T12:49:34.969Z,13.76
2019-04-12T12:52:03.619Z,13.78
2019-04-12T12:54:32.425Z,13.78
2019-04-12T12:57:01.582Z,13.81
2019-04-12T12:59:30.311Z,13.79
2019-04-12T13:01:58.865Z,14.00
2019-04-12T13:04:27.601Z,13.97
2019-04-12T13:06:56.452Z,14.07
2019-04-12T13:09:25.224Z,13.92
2019-04-12T13:11:53.938Z,13.88
2019-04-12T13:14:22.636Z,14.00
2019-04-12T13:16:51.263Z,13.96
2019-04-12T13:19:20.116Z,13.83
2019-04-12T13:21:48.772Z,13.69
2019-04-12T13:24:17.382Z,13.82
2019-04-12T13:26:46.094Z,14.03
2019-04-12T13:29:14.853Z,14.12
2019-04-12T13:32:00.937Z,14.11
2019-04-12T13:34:40.075Z,14.15
2019-04-12T13:37:40.450Z,13.99
2019-04-12T13:40:34.832Z,13.95
2019-04-12T13:43:08.590Z,14.03
2019-04-12T13:45:37.126Z,13.99
2019-04-12T13:48:05.731Z,14.03
2019-04-12T13:50:34.337Z,14.04
2019-04-12T13:53:03.205Z,14.21
2019-04-12T13:55:31.773Z,14.20
2019-04-12T13:58:00.722Z,14.33
2019-04-12T14:00:29.335Z,14.28
2019-04-12T14:02:58.473Z,14.24
2019-04-12T14:05:27.008Z,14.14
2019-04-12T14:07:55.968Z,14.23
2019-04-12T14:10:24.678Z,14.36
2019-04-12T14:13:02.485Z,14.36
2019-04-12T14:15:23.823Z,14.43
2019-04-12T14:17:52.534Z,14.39
2019-04-12T14:20:21.151Z,14.46
2019-04-12T14:22:49.764Z,14.56
2019-04-12T14:25:18.603Z,14.61
2019-04-12T14:27:47.316Z,14.66
2019-04-12T14:30:41.699Z,14.65
2019-04-12T14:33:28.708Z,14.53
2019-04-12T14:36:20.145Z,14.51
2019-04-12T14:38:48.775Z,14.60
2019-04-12T14:41:17.605Z,14.54
2019-04-12T14:44:08.346Z,14.52
2019-04-12T14:46:43.944Z,14.60
2019-04-12T14:49:12.336Z,14.53
2019-04-12T14:51:41.260Z,14.61
2019-04-12T14:54:09.978Z,14.60
2019-04-12T14:56:38.735Z,14.68
2019-04-12T14:59:07.641Z,14.70
2019-04-12T15:01:36.259Z,14.64
2019-04-12T15:04:05.063Z,14.75
2019-04-12T15:06:33.679Z,14.74
2019-04-12T15:09:04.261Z,14.82
2019-04-12T15:11:33.049Z,14.89
2019-04-12T15:14:01.896Z,14.91
2019-04-12T15:16:33.388Z,14.93
2019-04-12T15:19:01.102Z,14.89
2019-04-12T15:21:29.710Z,14.89
2019-04-12T15:23:58.424Z,14.94
2019-04-12T15:26:27.080Z,14.95
2019-04-12T15:28:55.789Z,14.99
2019-04-12T15:31:24.377Z,15.02
2019-04-12T15:33:53.181Z,15.01
2019-04-12T15:36:21.895Z,15.03
2019-04-12T15:38:50.525Z,15.10
2019-04-12T15:41:19.366Z,15.11
2019-04-12T15:43:48.076Z,15.08
2019-04-12T15:46:16.715Z,15.08
2019-04-12T15:48:45.418Z,15.08
2019-04-12T15:51:14.240Z,15.13
2019-04-12T15:53:42.877Z,15.12
2019-04-12T15:56:11.559Z,15.16
2019-04-12T15:58:40.205Z,15.16
2019-04-12T16:01:16.298Z,15.17
2019-04-12T16:03:45.306Z,15.16
2019-04-12T16:06:14.320Z,15.15
2019-04-12T16:08:50.901Z,15.16
2019-04-12T16:11:23.093Z,15.14
2019-04-12T16:14:19.215Z,15.13
2019-04-12T16:17:24.061Z,15.15
2019-04-12T16:19:53.617Z,15.09
2019-04-12T16:22:22.432Z,15.07
2019-04-12T16:24:50.843Z,15.09
2019-04-12T16:27:19.472Z,15.08
2019-04-12T16:30:07.058Z,15.04
2019-04-12T16:32:55.202Z,15.00
2019-04-12T16:35:32.992Z,14.98
2019-04-12T16:38:06.826Z,14.93
2019-04-12T16:40:35.541Z,14.92
2019-04-12T16:43:04.383Z,14.89
2019-04-12T16:45:32.978Z,14.84
2019-04-12T16:48:01.591Z,14.78
2019-04-12T16:50:30.151Z,14.78
2019-04-12T16:52:58.782Z,14.70
2019-04-12T16:55:27.386Z,14.72
2019-04-12T16:57:56.095Z,14.65
2019-04-12T17:00:38.031Z,14.57
2019-04-12T17:03:06.851Z,14.51
2019-04-12T17:05:36.265Z,14.49
2019-04-12T17:08:05.823Z,14.47
2019-04-12T17:10:34.582Z,14.45
2019-04-12T17:13:04.083Z,14.46
2019-04-12T17:15:33.300Z,14.40
2019-04-12T17:18:02.091Z,14.42
2019-04-12T17:20:30.947Z,14.34
2019-04-12T17:22:59.661Z,14.30
2019-04-12T17:25:28.424Z,14.41
2019-04-12T17:27:57.226Z,14.35
2019-04-12T17:30:26.047Z,14.25
2019-04-12T17:32:54.691Z,14.26
2019-04-12T17:35:23.122Z,14.21
2019-04-12T17:37:51.765Z,14.20
2019-04-12T17:40:20.306Z,14.20
2019-04-12T17:42:48.975Z,14.19
2019-04-12T17:45:17.599Z,14.22
2019-04-12T17:47:46.115Z,14.08
2019-04-12T17:50:35.030Z,14.11
2019-04-12T17:53:22.371Z,14.08
2019-04-12T17:55:53.707Z,14.00
2019-04-12T17:58:22.546Z,14.04
2019-04-12T18:00:59.905Z,13.96
2019-04-12T18:03:28.463Z,14.10
2019-04-12T18:05:57.054Z,14.18
2019-04-12T18:08:25.773Z,13.94
2019-04-12T18:10:54.379Z,14.05
2019-04-12T18:13:22.990Z,13.93
2019-04-12T18:15:51.777Z,13.97
2019-04-12T18:18:20.516Z,13.94
2019-04-12T18:20:49.391Z,13.95
2019-04-12T18:23:17.926Z,13.90
2019-04-12T18:25:46.751Z,13.86
2019-04-12T18:28:15.370Z,13.98
2019-04-12T18:30:43.916Z,13.90
2019-04-12T18:33:12.496Z,13.87
2019-04-12T18:35:41.836Z,13.84
2019-04-12T18:38:10.477Z,13.91
2019-04-12T18:40:39.249Z,13.88
2019-04-12T18:43:08.172Z,13.82
2019-04-12T18:45:36.776Z,13.73
2019-04-12T18:48:05.292Z,13.70
2019-04-12T18:50:33.909Z,13.65
2019-04-12T18:53:02.723Z,13.57
2019-04-12T18:55:31.537Z,13.56
2019-04-12T18:58:00.171Z,13.57
2019-04-12T19:00:28.985Z,13.48
2019-04-12T19:02:57.698Z,13.47
2019-04-12T19:05:26.318Z,13.47
2019-04-12T19:07:54.940Z,13.44
2019-04-12T19:10:23.531Z,13.48
2019-04-12T19:12:52.240Z,13.65
2019-04-12T19:15:23.502Z,13.77
2019-04-12T19:17:52.132Z,13.65
2019-04-12T19:20:23.400Z,13.51
2019-04-12T19:22:52.519Z,13.46
2019-04-12T19:25:20.988Z,13.46
2019-04-12T19:27:49.600Z,13.40
2019-04-12T19:30:27.584Z,13.47
2019-04-12T19:33:21.616Z,13.38
2019-04-12T19:36:09.431Z,13.42
2019-04-12T19:39:00.312Z,13.34
2019-04-12T19:41:29.599Z,13.31
2019-04-12T19:43:58.184Z,13.26
2019-04-12T19:46:26.906Z,13.27
2019-04-12T19:48:55.531Z,13.26
2019-04-12T19:51:24.134Z,13.23
2019-04-12T19:53:52.754Z,13.19
2019-04-12T19:56:21.379Z,13.18
2019-04-12T19:58:49.975Z,13.18
2019-04-12T20:01:20.965Z,13.05
2019-04-12T20:03:49.789Z,12.97
2019-04-12T20:06:18.446Z,13.11
2019-04-12T20:08:47.057Z,13.04
2019-04-12T20:11:15.597Z,12.96
2019-04-12T20:13:44.207Z,12.96
2019-04-12T20:16:12.725Z,12.94
2019-04-12T20:18:41.152Z,12.98
2019-04-12T20:21:09.772Z,12.92
2019-04-12T20:23:38.496Z,12.79
2019-04-12T20:26:07.209Z,12.69
2019-04-12T20:28:35.844Z,12.65
2019-04-12T20:31:04.477Z,12.75
2019-04-12T20:33:33.107Z,12.71
2019-04-12T20:36:01.608Z,12.78
2019-04-12T20:38:30.116Z,12.73
2019-04-12T20:40:58.641Z,12.63
2019-04-12T20:43:27.152Z,12.74
2019-04-12T20:45:55.801Z,12.80
2019-04-12T20:48:24.298Z,12.72
2019-04-12T20:50:52.836Z,12.62
2019-04-12T20:53:21.357Z,12.64
2019-04-12T20:55:50.099Z,12.59
2019-04-12T20:58:18.868Z,12.68
2019-04-12T21:00:47.704Z,12.67
2019-04-12T21:03:16.880Z,12.70
2019-04-12T21:05:45.533Z,12.61
2019-04-12T21:08:14.244Z,12.66
2019-04-12T21:10:42.630Z,12.65
2019-04-12T21:13:11.349Z,12.73
2019-04-12T21:15:39.896Z,12.78
2019-04-12T21:18:08.521Z,12.73
2019-04-12T21:20:37.062Z,12.71
2019-04-12T21:23:05.832Z,12.70
2019-04-12T21:25:35.161Z,12.71
2019-04-12T21:28:04.463Z,12.76
2019-04-12T21:30:33.782Z,12.66
2019-04-12T21:33:03.213Z,12.65
2019-04-12T21:35:32.562Z,12.61
2019-04-12T21:38:01.883Z,12.59
2019-04-12T21:40:31.219Z,12.62
2019-04-12T21:43:00.588Z,12.63
2019-04-12T21:45:29.908Z,12.48
2019-04-12T21:47:59.245Z,12.51
2019-04-12T21:50:28.580Z,12.43
2019-04-12T21:52:57.885Z,12.44
2019-04-12T21:55:27.260Z,12.46
2019-04-12T21:57:56.643Z,12.41
2019-04-12T22:00:48.508Z,12.41
2019-04-12T22:03:18.464Z,12.36
2019-04-12T22:05:47.791Z,12.43
2019-04-12T22:08:17.212Z,12.45
2019-04-12T22:10:46.572Z,12.54
2019-04-12T22:13:15.898Z,12.54
2019-04-12T22:15:45.222Z,12.42
2019-04-12T22:18:14.460Z,12.42
2019-04-12T22:20:43.060Z,12.54
2019-04-12T22:23:11.682Z,12.46
2019-04-12T22:25:40.244Z,12.50
2019-04-12T22:28:08.973Z,12.53
2019-04-12T22:30:37.566Z,12.47
2019-04-12T22:33:06.082Z,12.49
2019-04-12T22:35:34.721Z,12.50
2019-04-12T22:38:03.765Z,12.45
2019-04-12T22:40:32.513Z,12.50
2019-04-12T22:43:01.265Z,12.56
2019-04-12T22:45:29.905Z,12.49
2019-04-12T22:47:58.391Z,12.42
2019-04-12T22:50:27.021Z,12.45
2019-04-12T22:52:55.432Z,12.53
2019-04-12T22:55:24.907Z,12.59
2019-04-12T22:57:53.536Z,12.53
2019-04-12T23:00:22.236Z,12.52
2019-04-12T23:02:51.061Z,12.53
2019-04-12T23:05:19.573Z,12.51
2019-04-12T23:07:48.151Z,12.56
2019-04-12T23:10:16.579Z,12.44
2019-04-12T23:12:45.191Z,12.45
2019-04-12T23:15:16.617Z,12.50
2019-04-12T23:17:45.213Z,12.51
2019-04-12T23:20:13.637Z,12.48
2019-04-12T23:22:42.216Z,12.58
2019-04-12T23:25:10.926Z,12.51
2019-04-12T23:27:39.444Z,12.56
2019-04-12T23:30:11.379Z,12.54
2019-04-12T23:32:40.002Z,12.61
2019-04-12T23:35:29.814Z,12.50
2019-04-12T23:37:58.312Z,12.53
2019-04-12T23:40:26.935Z,12.53
2019-04-12T23:42:55.471Z,12.51
2019-04-12T23:45:25.058Z,12.40
2019-04-12T23:47:53.669Z,12.44
2019-04-12T23:50:22.366Z,12.55
2019-04-12T23:52:50.966Z,12.43
2019-04-12T23:55:19.577Z,12.38
2019-04-12T23:57:50.382Z,12.41
